sensor_id;sensor_type;location;lat;lon;timestamp;temperature;humidity
31819;DHT22;18384;48.860;9.188;2024-01-30T00:02:15;6.00;95.20
31819;DHT22;18384;48.860;9.188;2024-01-30T00:04:41;6.00;95.30
31819;DHT22;18384;48.860;9.188;2024-01-30T00:07:07;6.00;95.30
31819;DHT22;18384;48.860;9.188;2024-01-30T00:09:33;6.80;95.50
31819;DHT22;18384;48.860;9.188;2024-01-30T00:11:59;6.00;95.30
31819;DHT22;18384;48.860;9.188;2024-01-30T00:14:25;6.00;95.40
31819;DHT22;18384;48.860;9.188;2024-01-30T00:16:52;6.00;95.50
31819;DHT22;18384;48.860;9.188;2024-01-30T00:19:18;6.00;95.40
31819;DHT22;18384;48.860;9.188;2024-01-30T00:21:44;6.00;95.40
31819;DHT22;18384;48.860;9.188;2024-01-30T00:24:10;6.00;95.40
31819;DHT22;18384;48.860;9.188;2024-01-30T00:26:36;6.00;95.50
31819;DHT22;18384;48.860;9.188;2024-01-30T00:29:02;5.90;95.50
31819;DHT22;18384;48.860;9.188;2024-01-30T00:31:28;5.90;95.50
31819;DHT22;18384;48.860;9.188;2024-01-30T00:33:54;5.90;95.50
31819;DHT22;18384;48.860;9.188;2024-01-30T00:36:21;5.90;95.50
31819;DHT22;18384;48.860;9.188;2024-01-30T00:38:47;5.90;95.50
31819;DHT22;18384;48.860;9.188;2024-01-30T00:41:13;5.90;95.60
31819;DHT22;18384;48.860;9.188;2024-01-30T00:43:39;5.90;95.60
31819;DHT22;18384;48.860;9.188;2024-01-30T00:46:05;5.90;95.60
31819;DHT22;18384;48.860;9.188;2024-01-30T00:48:31;5.90;95.60
31819;DHT22;18384;48.860;9.188;2024-01-30T00:50:57;5.90;95.60
31819;DHT22;18384;48.860;9.188;2024-01-30T00:53:24;5.90;95.70
31819;DHT22;18384;48.860;9.188;2024-01-30T00:55:50;5.90;95.60
31819;DHT22;18384;48.860;9.188;2024-01-30T00:58:16;5.90;95.50
31819;DHT22;18384;48.860;9.188;2024-01-30T01:00:44;5.90;95.60
31819;DHT22;18384;48.860;9.188;2024-01-30T01:03:10;5.90;95.70
31819;DHT22;18384;48.860;9.188;2024-01-30T01:05:36;5.90;95.70
31819;DHT22;18384;48.860;9.188;2024-01-30T01:08:02;5.90;95.70
31819;DHT22;18384;48.860;9.188;2024-01-30T01:10:28;5.90;95.80
31819;DHT22;18384;48.860;9.188;2024-01-30T01:12:55;5.90;95.70
31819;DHT22;18384;48.860;9.188;2024-01-30T01:15:21;5.90;95.70
31819;DHT22;18384;48.860;9.188;2024-01-30T01:17:47;6.00;95.60
31819;DHT22;18384;48.860;9.188;2024-01-30T01:20:13;5.90;95.70
31819;DHT22;18384;48.860;9.188;2024-01-30T01:22:39;5.90;95.70
31819;DHT22;18384;48.860;9.188;2024-01-30T01:25:06;5.90;95.50
31819;DHT22;18384;48.860;9.188;2024-01-30T01:27:33;5.90;95.50
31819;DHT22;18384;48.860;9.188;2024-01-30T01:30:04;5.90;95.60
31819;DHT22;18384;48.860;9.188;2024-01-30T01:32:31;5.80;95.60
31819;DHT22;18384;48.860;9.188;2024-01-30T01:34:57;5.80;95.50
31819;DHT22;18384;48.860;9.188;2024-01-30T01:37:23;5.80;95.50
31819;DHT22;18384;48.860;9.188;2024-01-30T01:39:52;5.80;95.50
31819;DHT22;18384;48.860;9.188;2024-01-30T01:42:18;5.70;95.50
31819;DHT22;18384;48.860;9.188;2024-01-30T01:44:44;5.70;95.50
31819;DHT22;18384;48.860;9.188;2024-01-30T01:47:10;5.70;95.50
31819;DHT22;18384;48.860;9.188;2024-01-30T01:49:37;5.70;95.50
31819;DHT22;18384;48.860;9.188;2024-01-30T01:52:04;5.70;95.60
31819;DHT22;18384;48.860;9.188;2024-01-30T01:54:30;5.70;95.60
31819;DHT22;18384;48.860;9.188;2024-01-30T01:56:57;5.60;95.70
31819;DHT22;18384;48.860;9.188;2024-01-30T01:59:24;5.60;95.60
31819;DHT22;18384;48.860;9.188;2024-01-30T02:01:51;5.60;95.70
31819;DHT22;18384;48.860;9.188;2024-01-30T02:04:18;5.60;95.70
31819;DHT22;18384;48.860;9.188;2024-01-30T02:06:44;5.60;95.80
31819;DHT22;18384;48.860;9.188;2024-01-30T02:09:10;5.60;95.70
31819;DHT22;18384;48.860;9.188;2024-01-30T02:11:37;5.60;95.80
31819;DHT22;18384;48.860;9.188;2024-01-30T02:14:04;5.60;95.80
31819;DHT22;18384;48.860;9.188;2024-01-30T02:16:31;5.60;95.80
31819;DHT22;18384;48.860;9.188;2024-01-30T02:18:57;5.60;95.80
31819;DHT22;18384;48.860;9.188;2024-01-30T02:21:23;5.50;95.90
31819;DHT22;18384;48.860;9.188;2024-01-30T02:23:50;5.60;95.90
31819;DHT22;18384;48.860;9.188;2024-01-30T02:26:18;5.60;95.90
31819;DHT22;18384;48.860;9.188;2024-01-30T02:28:44;5.60;95.90
31819;DHT22;18384;48.860;9.188;2024-01-30T02:31:10;5.60;95.80
31819;DHT22;18384;48.860;9.188;2024-01-30T02:33:36;5.50;95.90
31819;DHT22;18384;48.860;9.188;2024-01-30T02:36:03;5.50;95.90
31819;DHT22;18384;48.860;9.188;2024-01-30T02:38:29;5.50;95.90
31819;DHT22;18384;48.860;9.188;2024-01-30T02:40:55;5.60;95.90
31819;DHT22;18384;48.860;9.188;2024-01-30T02:43:22;5.50;95.80
31819;DHT22;18384;48.860;9.188;2024-01-30T02:45:48;5.50;95.90
31819;DHT22;18384;48.860;9.188;2024-01-30T02:48:14;5.50;95.90
31819;DHT22;18384;48.860;9.188;2024-01-30T02:50:40;5.50;96.10
31819;DHT22;18384;48.860;9.188;2024-01-30T02:53:06;5.50;96.00
31819;DHT22;18384;48.860;9.188;2024-01-30T02:55:33;5.40;96.20
31819;DHT22;18384;48.860;9.188;2024-01-30T02:57:59;5.40;96.30
31819;DHT22;18384;48.860;9.188;2024-01-30T03:00:25;5.40;96.20
31819;DHT22;18384;48.860;9.188;2024-01-30T03:02:51;5.40;96.20
31819;DHT22;18384;48.860;9.188;2024-01-30T03:05:17;5.40;96.20
31819;DHT22;18384;48.860;9.188;2024-01-30T03:07:43;5.40;96.20
31819;DHT22;18384;48.860;9.188;2024-01-30T03:10:09;5.50;96.10
31819;DHT22;18384;48.860;9.188;2024-01-30T03:12:35;5.40;96.20
31819;DHT22;18384;48.860;9.188;2024-01-30T03:15:02;5.50;96.10
31819;DHT22;18384;48.860;9.188;2024-01-30T03:17:28;5.50;96.10
31819;DHT22;18384;48.860;9.188;2024-01-30T03:19:54;5.40;96.10
31819;DHT22;18384;48.860;9.188;2024-01-30T03:22:20;5.40;96.10
31819;DHT22;18384;48.860;9.188;2024-01-30T03:24:46;5.50;96.10
31819;DHT22;18384;48.860;9.188;2024-01-30T03:27:12;5.40;96.10
31819;DHT22;18384;48.860;9.188;2024-01-30T03:29:38;5.40;96.20
31819;DHT22;18384;48.860;9.188;2024-01-30T03:32:05;5.40;96.10
31819;DHT22;18384;48.860;9.188;2024-01-30T03:34:31;5.40;96.10
31819;DHT22;18384;48.860;9.188;2024-01-30T03:36:57;5.40;96.00
31819;DHT22;18384;48.860;9.188;2024-01-30T03:39:23;5.40;96.10
31819;DHT22;18384;48.860;9.188;2024-01-30T03:41:49;5.30;96.10
31819;DHT22;18384;48.860;9.188;2024-01-30T03:44:15;5.30;96.10
31819;DHT22;18384;48.860;9.188;2024-01-30T03:46:41;5.30;96.10
31819;DHT22;18384;48.860;9.188;2024-01-30T03:49:07;5.40;96.10
31819;DHT22;18384;48.860;9.188;2024-01-30T03:51:34;5.40;96.10
31819;DHT22;18384;48.860;9.188;2024-01-30T03:54:01;5.30;96.10
31819;DHT22;18384;48.860;9.188;2024-01-30T03:56:27;5.30;96.20
31819;DHT22;18384;48.860;9.188;2024-01-30T03:58:53;5.30;96.20
31819;DHT22;18384;48.860;9.188;2024-01-30T04:01:19;5.30;96.20
31819;DHT22;18384;48.860;9.188;2024-01-30T04:03:45;5.30;96.10
31819;DHT22;18384;48.860;9.188;2024-01-30T04:06:11;5.30;96.20
31819;DHT22;18384;48.860;9.188;2024-01-30T04:08:38;5.20;96.20
31819;DHT22;18384;48.860;9.188;2024-01-30T04:11:07;5.30;96.20
31819;DHT22;18384;48.860;9.188;2024-01-30T04:13:33;5.30;96.20
31819;DHT22;18384;48.860;9.188;2024-01-30T04:16:00;5.30;96.20
31819;DHT22;18384;48.860;9.188;2024-01-30T04:18:29;5.20;96.20
31819;DHT22;18384;48.860;9.188;2024-01-30T04:20:55;5.20;96.20
31819;DHT22;18384;48.860;9.188;2024-01-30T04:23:21;5.20;96.20
31819;DHT22;18384;48.860;9.188;2024-01-30T04:25:47;5.20;96.10
31819;DHT22;18384;48.860;9.188;2024-01-30T04:28:13;5.20;96.20
31819;DHT22;18384;48.860;9.188;2024-01-30T04:30:39;5.20;96.20
31819;DHT22;18384;48.860;9.188;2024-01-30T04:33:06;5.10;96.20
31819;DHT22;18384;48.860;9.188;2024-01-30T04:35:32;5.10;96.30
31819;DHT22;18384;48.860;9.188;2024-01-30T04:37:58;5.10;96.20
31819;DHT22;18384;48.860;9.188;2024-01-30T04:40:24;5.10;96.20
31819;DHT22;18384;48.860;9.188;2024-01-30T04:42:50;5.10;96.30
31819;DHT22;18384;48.860;9.188;2024-01-30T04:45:16;5.10;96.30
31819;DHT22;18384;48.860;9.188;2024-01-30T04:47:42;4.00;96.00
31819;DHT22;18384;48.860;9.188;2024-01-30T04:50:09;5.10;96.40
31819;DHT22;18384;48.860;9.188;2024-01-30T04:52:35;5.10;96.40
31819;DHT22;18384;48.860;9.188;2024-01-30T04:55:01;5.10;96.30
31819;DHT22;18384;48.860;9.188;2024-01-30T04:57:27;5.10;96.30
31819;DHT22;18384;48.860;9.188;2024-01-30T04:59:54;5.10;96.30
31819;DHT22;18384;48.860;9.188;2024-01-30T05:02:20;5.10;96.20
31819;DHT22;18384;48.860;9.188;2024-01-30T05:04:46;5.10;96.20
31819;DHT22;18384;48.860;9.188;2024-01-30T05:07:12;5.10;96.20
31819;DHT22;18384;48.860;9.188;2024-01-30T05:09:38;5.10;96.30
31819;DHT22;18384;48.860;9.188;2024-01-30T05:12:04;5.10;96.30
31819;DHT22;18384;48.860;9.188;2024-01-30T05:14:31;5.10;96.20
31819;DHT22;18384;48.860;9.188;2024-01-30T05:16:57;5.10;96.20
31819;DHT22;18384;48.860;9.188;2024-01-30T05:19:23;5.10;96.30
31819;DHT22;18384;48.860;9.188;2024-01-30T05:21:49;5.10;96.20
31819;DHT22;18384;48.860;9.188;2024-01-30T05:24:15;5.10;96.20
31819;DHT22;18384;48.860;9.188;2024-01-30T05:26:42;5.10;96.20
31819;DHT22;18384;48.860;9.188;2024-01-30T05:29:08;5.10;96.20
31819;DHT22;18384;48.860;9.188;2024-01-30T05:31:34;5.20;96.20
31819;DHT22;18384;48.860;9.188;2024-01-30T05:34:00;5.10;96.20
31819;DHT22;18384;48.860;9.188;2024-01-30T05:36:27;5.20;96.20
31819;DHT22;18384;48.860;9.188;2024-01-30T05:38:53;5.20;96.10
31819;DHT22;18384;48.860;9.188;2024-01-30T05:41:19;5.10;96.00
31819;DHT22;18384;48.860;9.188;2024-01-30T05:43:46;5.10;96.00
31819;DHT22;18384;48.860;9.188;2024-01-30T05:46:13;5.10;96.00
31819;DHT22;18384;48.860;9.188;2024-01-30T05:48:39;5.20;96.10
31819;DHT22;18384;48.860;9.188;2024-01-30T05:51:07;5.20;96.10
31819;DHT22;18384;48.860;9.188;2024-01-30T05:53:33;5.20;96.10
31819;DHT22;18384;48.860;9.188;2024-01-30T05:56:02;5.20;96.00
31819;DHT22;18384;48.860;9.188;2024-01-30T05:58:28;5.20;95.90
31819;DHT22;18384;48.860;9.188;2024-01-30T06:00:54;5.20;95.80
31819;DHT22;18384;48.860;9.188;2024-01-30T06:03:21;5.20;95.90
31819;DHT22;18384;48.860;9.188;2024-01-30T06:05:47;5.20;95.90
31819;DHT22;18384;48.860;9.188;2024-01-30T06:08:13;5.20;95.90
31819;DHT22;18384;48.860;9.188;2024-01-30T06:10:39;5.20;95.90
31819;DHT22;18384;48.860;9.188;2024-01-30T06:13:05;5.20;95.90
31819;DHT22;18384;48.860;9.188;2024-01-30T06:15:32;5.20;95.90
31819;DHT22;18384;48.860;9.188;2024-01-30T06:17:58;5.20;95.90
31819;DHT22;18384;48.860;9.188;2024-01-30T06:20:24;5.20;95.90
31819;DHT22;18384;48.860;9.188;2024-01-30T06:22:50;5.20;95.90
31819;DHT22;18384;48.860;9.188;2024-01-30T06:25:16;5.10;95.90
31819;DHT22;18384;48.860;9.188;2024-01-30T06:27:43;5.10;95.90
31819;DHT22;18384;48.860;9.188;2024-01-30T06:30:09;5.10;96.00
31819;DHT22;18384;48.860;9.188;2024-01-30T06:32:36;5.10;95.90
31819;DHT22;18384;48.860;9.188;2024-01-30T06:35:02;5.10;95.90
31819;DHT22;18384;48.860;9.188;2024-01-30T06:37:28;5.10;95.90
31819;DHT22;18384;48.860;9.188;2024-01-30T06:39:54;5.10;95.90
31819;DHT22;18384;48.860;9.188;2024-01-30T06:42:21;5.10;95.90
31819;DHT22;18384;48.860;9.188;2024-01-30T06:44:47;5.00;95.90
31819;DHT22;18384;48.860;9.188;2024-01-30T06:47:13;5.10;95.90
31819;DHT22;18384;48.860;9.188;2024-01-30T06:49:39;5.10;95.90
31819;DHT22;18384;48.860;9.188;2024-01-30T06:52:07;5.00;95.90
31819;DHT22;18384;48.860;9.188;2024-01-30T06:54:34;5.10;96.00
31819;DHT22;18384;48.860;9.188;2024-01-30T06:57:00;5.10;95.90
31819;DHT22;18384;48.860;9.188;2024-01-30T06:59:26;5.10;96.00
31819;DHT22;18384;48.860;9.188;2024-01-30T07:01:52;5.10;95.90
31819;DHT22;18384;48.860;9.188;2024-01-30T07:04:18;5.10;96.00
31819;DHT22;18384;48.860;9.188;2024-01-30T07:06:45;5.10;95.90
31819;DHT22;18384;48.860;9.188;2024-01-30T07:09:12;5.10;95.80
31819;DHT22;18384;48.860;9.188;2024-01-30T07:11:39;5.10;95.80
31819;DHT22;18384;48.860;9.188;2024-01-30T07:14:05;5.10;95.90
31819;DHT22;18384;48.860;9.188;2024-01-30T07:16:31;5.10;95.90
31819;DHT22;18384;48.860;9.188;2024-01-30T07:18:57;5.10;95.90
31819;DHT22;18384;48.860;9.188;2024-01-30T07:21:23;5.10;95.90
31819;DHT22;18384;48.860;9.188;2024-01-30T07:23:56;5.10;95.90
31819;DHT22;18384;48.860;9.188;2024-01-30T07:26:23;5.10;95.90
31819;DHT22;18384;48.860;9.188;2024-01-30T07:28:49;5.10;95.90
31819;DHT22;18384;48.860;9.188;2024-01-30T07:31:15;5.10;95.90
31819;DHT22;18384;48.860;9.188;2024-01-30T07:33:41;5.20;95.90
31819;DHT22;18384;48.860;9.188;2024-01-30T07:36:08;5.20;95.90
31819;DHT22;18384;48.860;9.188;2024-01-30T07:38:34;5.20;96.00
31819;DHT22;18384;48.860;9.188;2024-01-30T07:41:00;5.20;95.80
31819;DHT22;18384;48.860;9.188;2024-01-30T07:43:26;5.30;95.80
31819;DHT22;18384;48.860;9.188;2024-01-30T07:45:52;5.30;95.80
31819;DHT22;18384;48.860;9.188;2024-01-30T07:48:18;5.30;95.70
31819;DHT22;18384;48.860;9.188;2024-01-30T07:50:44;5.40;95.70
31819;DHT22;18384;48.860;9.188;2024-01-30T07:53:11;5.40;95.60
31819;DHT22;18384;48.860;9.188;2024-01-30T07:55:37;5.40;95.50
31819;DHT22;18384;48.860;9.188;2024-01-30T07:58:03;5.50;95.50
31819;DHT22;18384;48.860;9.188;2024-01-30T08:00:30;5.50;95.50
31819;DHT22;18384;48.860;9.188;2024-01-30T08:02:56;5.50;95.50
31819;DHT22;18384;48.860;9.188;2024-01-30T08:05:22;5.50;95.30
31819;DHT22;18384;48.860;9.188;2024-01-30T08:07:49;5.50;95.50
31819;DHT22;18384;48.860;9.188;2024-01-30T08:10:15;5.50;95.40
31819;DHT22;18384;48.860;9.188;2024-01-30T08:12:43;5.60;95.40
31819;DHT22;18384;48.860;9.188;2024-01-30T08:15:11;5.70;95.40
31819;DHT22;18384;48.860;9.188;2024-01-30T08:17:37;5.80;95.20
31819;DHT22;18384;48.860;9.188;2024-01-30T08:20:04;5.70;95.30
31819;DHT22;18384;48.860;9.188;2024-01-30T08:22:31;5.80;95.10
31819;DHT22;18384;48.860;9.188;2024-01-30T08:24:57;5.90;94.90
31819;DHT22;18384;48.860;9.188;2024-01-30T08:27:23;6.00;94.80
31819;DHT22;18384;48.860;9.188;2024-01-30T08:29:49;6.10;94.70
31819;DHT22;18384;48.860;9.188;2024-01-30T08:32:16;6.20;94.50
31819;DHT22;18384;48.860;9.188;2024-01-30T08:34:42;6.20;94.70
31819;DHT22;18384;48.860;9.188;2024-01-30T08:37:08;6.30;94.60
31819;DHT22;18384;48.860;9.188;2024-01-30T08:39:34;6.30;94.90
31819;DHT22;18384;48.860;9.188;2024-01-30T08:42:00;6.40;94.60
31819;DHT22;18384;48.860;9.188;2024-01-30T08:44:26;6.40;94.80
31819;DHT22;18384;48.860;9.188;2024-01-30T08:46:53;6.50;94.90
31819;DHT22;18384;48.860;9.188;2024-01-30T08:49:20;7.90;94.60
31819;DHT22;18384;48.860;9.188;2024-01-30T08:51:46;6.70;94.00
31819;DHT22;18384;48.860;9.188;2024-01-30T08:54:13;6.80;94.00
31819;DHT22;18384;48.860;9.188;2024-01-30T08:56:39;6.90;93.80
31819;DHT22;18384;48.860;9.188;2024-01-30T08:59:05;6.90;93.70
31819;DHT22;18384;48.860;9.188;2024-01-30T09:01:31;7.00;93.60
31819;DHT22;18384;48.860;9.188;2024-01-30T09:03:57;7.00;93.70
31819;DHT22;18384;48.860;9.188;2024-01-30T09:06:23;7.10;93.50
31819;DHT22;18384;48.860;9.188;2024-01-30T09:08:53;7.10;93.40
31819;DHT22;18384;48.860;9.188;2024-01-30T09:11:20;7.20;93.30
31819;DHT22;18384;48.860;9.188;2024-01-30T09:13:46;7.20;93.50
31819;DHT22;18384;48.860;9.188;2024-01-30T09:16:12;7.20;93.40
31819;DHT22;18384;48.860;9.188;2024-01-30T09:18:38;7.30;93.30
31819;DHT22;18384;48.860;9.188;2024-01-30T09:21:04;7.40;93.10
31819;DHT22;18384;48.860;9.188;2024-01-30T09:23:30;7.40;93.10
31819;DHT22;18384;48.860;9.188;2024-01-30T09:25:56;7.40;93.60
31819;DHT22;18384;48.860;9.188;2024-01-30T09:28:23;7.40;93.20
31819;DHT22;18384;48.860;9.188;2024-01-30T09:30:49;7.40;93.10
31819;DHT22;18384;48.860;9.188;2024-01-30T09:33:15;7.50;93.20
31819;DHT22;18384;48.860;9.188;2024-01-30T09:35:41;7.50;93.10
31819;DHT22;18384;48.860;9.188;2024-01-30T09:38:07;7.60;93.00
31819;DHT22;18384;48.860;9.188;2024-01-30T09:40:33;7.70;93.10
31819;DHT22;18384;48.860;9.188;2024-01-30T09:42:59;7.80;93.00
31819;DHT22;18384;48.860;9.188;2024-01-30T09:45:26;7.80;93.00
31819;DHT22;18384;48.860;9.188;2024-01-30T09:47:52;7.90;92.80
31819;DHT22;18384;48.860;9.188;2024-01-30T09:50:19;8.00;92.90
31819;DHT22;18384;48.860;9.188;2024-01-30T09:52:46;8.00;92.90
31819;DHT22;18384;48.860;9.188;2024-01-30T09:55:13;8.10;92.80
31819;DHT22;18384;48.860;9.188;2024-01-30T09:57:39;8.20;93.00
31819;DHT22;18384;48.860;9.188;2024-01-30T10:00:07;8.30;92.90
31819;DHT22;18384;48.860;9.188;2024-01-30T10:02:35;8.40;92.60
31819;DHT22;18384;48.860;9.188;2024-01-30T10:05:01;8.40;92.80
31819;DHT22;18384;48.860;9.188;2024-01-30T10:07:27;8.50;93.00
31819;DHT22;18384;48.860;9.188;2024-01-30T10:09:54;8.60;92.80
31819;DHT22;18384;48.860;9.188;2024-01-30T10:12:31;8.70;92.50
31819;DHT22;18384;48.860;9.188;2024-01-30T10:14:57;8.80;92.40
31819;DHT22;18384;48.860;9.188;2024-01-30T10:17:24;8.90;92.50
31819;DHT22;18384;48.860;9.188;2024-01-30T10:19:51;8.90;92.80
31819;DHT22;18384;48.860;9.188;2024-01-30T10:22:17;9.00;92.60
31819;DHT22;18384;48.860;9.188;2024-01-30T10:24:43;9.10;92.70
31819;DHT22;18384;48.860;9.188;2024-01-30T10:27:10;9.20;92.60
31819;DHT22;18384;48.860;9.188;2024-01-30T10:29:37;9.20;92.30
31819;DHT22;18384;48.860;9.188;2024-01-30T10:32:04;9.30;92.50
31819;DHT22;18384;48.860;9.188;2024-01-30T10:34:31;9.30;92.20
31819;DHT22;18384;48.860;9.188;2024-01-30T10:37:11;9.40;91.90
31819;DHT22;18384;48.860;9.188;2024-01-30T10:39:41;9.40;91.70
31819;DHT22;18384;48.860;9.188;2024-01-30T10:42:17;9.40;91.60
31819;DHT22;18384;48.860;9.188;2024-01-30T10:51:32;9.50;91.50
31819;DHT22;18384;48.860;9.188;2024-01-30T10:54:01;9.70;91.30
31819;DHT22;18384;48.860;9.188;2024-01-30T10:56:28;9.70;91.50
31819;DHT22;18384;48.860;9.188;2024-01-30T10:58:55;9.70;91.30
31819;DHT22;18384;48.860;9.188;2024-01-30T11:01:22;9.80;91.30
31819;DHT22;18384;48.860;9.188;2024-01-30T11:03:57;9.80;91.20
31819;DHT22;18384;48.860;9.188;2024-01-30T11:06:25;9.90;91.30
31819;DHT22;18384;48.860;9.188;2024-01-30T11:09:01;9.90;91.10
31819;DHT22;18384;48.860;9.188;2024-01-30T11:11:57;10.00;91.00
31819;DHT22;18384;48.860;9.188;2024-01-30T11:14:28;10.10;91.10
31819;DHT22;18384;48.860;9.188;2024-01-30T11:16:59;10.10;90.70
31819;DHT22;18384;48.860;9.188;2024-01-30T11:19:26;10.10;91.10
31819;DHT22;18384;48.860;9.188;2024-01-30T11:21:53;10.20;90.70
31819;DHT22;18384;48.860;9.188;2024-01-30T11:24:23;10.20;90.70
31819;DHT22;18384;48.860;9.188;2024-01-30T11:26:50;10.30;90.70
31819;DHT22;18384;48.860;9.188;2024-01-30T11:29:25;10.30;90.50
31819;DHT22;18384;48.860;9.188;2024-01-30T11:31:58;10.40;90.60
31819;DHT22;18384;48.860;9.188;2024-01-30T11:34:25;10.50;90.60
31819;DHT22;18384;48.860;9.188;2024-01-30T11:36:59;10.60;90.70
31819;DHT22;18384;48.860;9.188;2024-01-30T11:39:32;10.70;90.60
31819;DHT22;18384;48.860;9.188;2024-01-30T11:41:59;10.70;90.40
31819;DHT22;18384;48.860;9.188;2024-01-30T11:44:25;10.80;90.10
31819;DHT22;18384;48.860;9.188;2024-01-30T11:46:52;10.90;90.00
31819;DHT22;18384;48.860;9.188;2024-01-30T11:49:18;11.00;90.10
31819;DHT22;18384;48.860;9.188;2024-01-30T11:51:45;11.00;90.00
31819;DHT22;18384;48.860;9.188;2024-01-30T11:54:14;11.00;90.20
31819;DHT22;18384;48.860;9.188;2024-01-30T11:56:42;11.10;90.10
31819;DHT22;18384;48.860;9.188;2024-01-30T11:59:08;11.20;89.90
31819;DHT22;18384;48.860;9.188;2024-01-30T12:01:35;11.20;89.30
31819;DHT22;18384;48.860;9.188;2024-01-30T12:04:02;11.30;89.50
31819;DHT22;18384;48.860;9.188;2024-01-30T12:06:28;11.30;89.70
31819;DHT22;18384;48.860;9.188;2024-01-30T12:08:57;11.40;90.20
31819;DHT22;18384;48.860;9.188;2024-01-30T12:11:29;11.40;90.00
31819;DHT22;18384;48.860;9.188;2024-01-30T12:13:56;10.90;89.60
31819;DHT22;18384;48.860;9.188;2024-01-30T12:16:22;11.40;89.50
31819;DHT22;18384;48.860;9.188;2024-01-30T12:18:48;11.40;89.50
31819;DHT22;18384;48.860;9.188;2024-01-30T12:21:17;11.40;89.20
31819;DHT22;18384;48.860;9.188;2024-01-30T12:23:45;11.40;89.60
31819;DHT22;18384;48.860;9.188;2024-01-30T12:26:11;11.50;89.90
31819;DHT22;18384;48.860;9.188;2024-01-30T12:28:50;11.40;89.30
31819;DHT22;18384;48.860;9.188;2024-01-30T12:31:28;11.40;88.90
31819;DHT22;18384;48.860;9.188;2024-01-30T12:33:54;11.40;88.90
31819;DHT22;18384;48.860;9.188;2024-01-30T12:36:24;11.40;88.80
31819;DHT22;18384;48.860;9.188;2024-01-30T12:38:50;11.40;88.70
31819;DHT22;18384;48.860;9.188;2024-01-30T12:41:16;11.50;88.70
31819;DHT22;18384;48.860;9.188;2024-01-30T12:43:43;11.50;88.70
31819;DHT22;18384;48.860;9.188;2024-01-30T12:46:09;11.50;88.50
31819;DHT22;18384;48.860;9.188;2024-01-30T12:48:35;11.50;88.80
31819;DHT22;18384;48.860;9.188;2024-01-30T12:51:01;11.60;88.90
31819;DHT22;18384;48.860;9.188;2024-01-30T12:53:27;11.60;88.60
31819;DHT22;18384;48.860;9.188;2024-01-30T12:55:54;11.60;88.30
31819;DHT22;18384;48.860;9.188;2024-01-30T12:58:20;11.60;88.40
31819;DHT22;18384;48.860;9.188;2024-01-30T13:00:46;11.60;88.20
31819;DHT22;18384;48.860;9.188;2024-01-30T13:03:13;11.70;88.50
31819;DHT22;18384;48.860;9.188;2024-01-30T13:05:39;11.70;88.80
31819;DHT22;18384;48.860;9.188;2024-01-30T13:08:05;11.70;88.40
31819;DHT22;18384;48.860;9.188;2024-01-30T13:10:31;11.80;88.20
31819;DHT22;18384;48.860;9.188;2024-01-30T13:12:57;11.80;88.30
31819;DHT22;18384;48.860;9.188;2024-01-30T13:15:24;11.90;88.60
31819;DHT22;18384;48.860;9.188;2024-01-30T13:17:50;12.00;88.60
31819;DHT22;18384;48.860;9.188;2024-01-30T13:20:18;12.00;88.50
31819;DHT22;18384;48.860;9.188;2024-01-30T13:22:47;12.10;88.60
31819;DHT22;18384;48.860;9.188;2024-01-30T13:25:15;12.20;88.80
31819;DHT22;18384;48.860;9.188;2024-01-30T13:27:41;12.30;88.40
31819;DHT22;18384;48.860;9.188;2024-01-30T13:30:08;12.30;88.50
31819;DHT22;18384;48.860;9.188;2024-01-30T13:32:35;12.40;89.00
31819;DHT22;18384;48.860;9.188;2024-01-30T13:35:01;12.40;88.50
31819;DHT22;18384;48.860;9.188;2024-01-30T13:37:27;12.40;88.40
31819;DHT22;18384;48.860;9.188;2024-01-30T13:39:53;12.40;87.80
31819;DHT22;18384;48.860;9.188;2024-01-30T13:42:19;12.40;87.60
31819;DHT22;18384;48.860;9.188;2024-01-30T13:44:46;12.50;87.70
31819;DHT22;18384;48.860;9.188;2024-01-30T13:47:12;12.50;88.50
31819;DHT22;18384;48.860;9.188;2024-01-30T13:49:38;12.50;88.10
31819;DHT22;18384;48.860;9.188;2024-01-30T13:52:04;12.50;88.20
31819;DHT22;18384;48.860;9.188;2024-01-30T13:54:30;12.50;87.50
31819;DHT22;18384;48.860;9.188;2024-01-30T13:56:57;12.50;87.90
31819;DHT22;18384;48.860;9.188;2024-01-30T13:59:23;12.50;89.30
31819;DHT22;18384;48.860;9.188;2024-01-30T14:01:51;12.50;90.60
31819;DHT22;18384;48.860;9.188;2024-01-30T14:04:17;12.40;90.90
31819;DHT22;18384;48.860;9.188;2024-01-30T14:06:43;12.40;91.20
31819;DHT22;18384;48.860;9.188;2024-01-30T14:09:10;12.30;91.10
31819;DHT22;18384;48.860;9.188;2024-01-30T14:11:36;12.30;91.40
31819;DHT22;18384;48.860;9.188;2024-01-30T14:14:02;12.20;91.40
31819;DHT22;18384;48.860;9.188;2024-01-30T14:16:28;12.10;91.40
31819;DHT22;18384;48.860;9.188;2024-01-30T14:18:54;12.00;91.60
31819;DHT22;18384;48.860;9.188;2024-01-30T14:21:21;11.90;91.70
31819;DHT22;18384;48.860;9.188;2024-01-30T14:23:47;11.80;91.80
31819;DHT22;18384;48.860;9.188;2024-01-30T14:26:13;11.70;91.80
31819;DHT22;18384;48.860;9.188;2024-01-30T14:28:39;11.70;91.80
31819;DHT22;18384;48.860;9.188;2024-01-30T14:31:05;11.60;91.80
31819;DHT22;18384;48.860;9.188;2024-01-30T14:33:31;11.60;91.90
31819;DHT22;18384;48.860;9.188;2024-01-30T14:35:57;11.60;91.80
31819;DHT22;18384;48.860;9.188;2024-01-30T14:38:23;11.60;91.60
31819;DHT22;18384;48.860;9.188;2024-01-30T14:40:50;11.50;92.00
31819;DHT22;18384;48.860;9.188;2024-01-30T14:43:16;11.50;91.90
31819;DHT22;18384;48.860;9.188;2024-01-30T14:45:43;11.50;91.90
31819;DHT22;18384;48.860;9.188;2024-01-30T14:48:11;11.60;91.80
31819;DHT22;18384;48.860;9.188;2024-01-30T14:50:37;11.50;91.80
31819;DHT22;18384;48.860;9.188;2024-01-30T14:53:03;11.50;91.80
31819;DHT22;18384;48.860;9.188;2024-01-30T14:55:30;11.40;91.50
31819;DHT22;18384;48.860;9.188;2024-01-30T14:57:56;11.40;91.50
31819;DHT22;18384;48.860;9.188;2024-01-30T15:00:22;11.50;91.40
31819;DHT22;18384;48.860;9.188;2024-01-30T15:02:48;11.40;91.50
31819;DHT22;18384;48.860;9.188;2024-01-30T15:05:14;11.30;91.40
31819;DHT22;18384;48.860;9.188;2024-01-30T15:07:40;11.30;91.40
31819;DHT22;18384;48.860;9.188;2024-01-30T15:10:10;11.30;91.40
31819;DHT22;18384;48.860;9.188;2024-01-30T15:12:36;11.30;91.50
31819;DHT22;18384;48.860;9.188;2024-01-30T15:15:02;11.20;91.50
31819;DHT22;18384;48.860;9.188;2024-01-30T15:17:29;11.20;91.50
31819;DHT22;18384;48.860;9.188;2024-01-30T15:19:55;11.20;91.60
31819;DHT22;18384;48.860;9.188;2024-01-30T15:22:21;11.10;91.70
31819;DHT22;18384;48.860;9.188;2024-01-30T15:24:47;11.10;91.80
31819;DHT22;18384;48.860;9.188;2024-01-30T15:27:13;11.00;91.90
31819;DHT22;18384;48.860;9.188;2024-01-30T15:29:39;11.00;92.10
31819;DHT22;18384;48.860;9.188;2024-01-30T15:32:06;11.00;92.20
31819;DHT22;18384;48.860;9.188;2024-01-30T15:34:32;10.90;92.40
31819;DHT22;18384;48.860;9.188;2024-01-30T15:36:58;10.90;92.50
31819;DHT22;18384;48.860;9.188;2024-01-30T15:39:24;10.90;92.60
31819;DHT22;18384;48.860;9.188;2024-01-30T15:41:50;10.90;92.70
31819;DHT22;18384;48.860;9.188;2024-01-30T15:44:16;10.90;92.70
31819;DHT22;18384;48.860;9.188;2024-01-30T15:46:43;10.80;92.80